createdAt,value
2019-01-13T00:02:58.339Z,23.47
2019-01-13T00:06:03.668Z,29.00
2019-01-13T00:09:09.768Z,23.77
2019-01-13T00:12:14.822Z,22.37
2019-01-13T00:15:19.910Z,25.83
2019-01-13T00:18:24.976Z,21.47
2019-01-13T00:21:30.020Z,24.60
2019-01-13T00:24:35.138Z,23.23
2019-01-13T00:27:40.237Z,21.37
2019-01-13T00:30:45.191Z,18.17
2019-01-13T00:33:50.180Z,20.67
2019-01-13T00:36:55.386Z,20.83
2019-01-13T00:40:00.629Z,19.43
2019-01-13T00:43:06.217Z,25.13
2019-01-13T00:46:11.232Z,18.97
2019-01-13T00:49:16.525Z,21.47
2019-01-13T00:52:21.640Z,19.77
2019-01-13T00:55:26.561Z,18.23
2019-01-13T00:58:34.460Z,17.83
2019-01-13T01:01:39.555Z,19.63
2019-01-13T01:04:44.706Z,18.40
2019-01-13T01:07:50.771Z,17.33
2019-01-13T01:10:56.142Z,18.80
2019-01-13T01:14:01.216Z,19.67
2019-01-13T01:17:06.611Z,19.77
2019-01-13T01:20:12.911Z,19.07
2019-01-13T01:23:17.966Z,19.70
2019-01-13T01:26:23.069Z,15.57
2019-01-13T01:29:28.218Z,20.20
2019-01-13T01:32:33.285Z,20.20
2019-01-13T01:35:38.500Z,22.87
2019-01-13T01:38:43.730Z,22.50
2019-01-13T01:41:48.710Z,17.73
2019-01-13T01:44:53.741Z,20.43
2019-01-13T01:47:58.634Z,20.17
2019-01-13T01:51:03.731Z,20.30
2019-01-13T01:54:08.675Z,22.47
2019-01-13T01:57:13.674Z,22.23
2019-01-13T02:00:20.893Z,21.70
2019-01-13T02:03:25.827Z,19.80
2019-01-13T02:06:30.742Z,19.90
2019-01-13T02:09:35.712Z,24.30
2019-01-13T02:12:40.713Z,23.67
2019-01-13T02:15:46.047Z,24.70
2019-01-13T02:18:51.321Z,21.03
2019-01-13T02:21:56.272Z,26.73
2019-01-13T02:25:01.476Z,22.10
2019-01-13T02:28:06.563Z,22.23
2019-01-13T02:31:11.692Z,19.13
2019-01-13T02:34:16.591Z,18.97
2019-01-13T02:37:21.714Z,18.33
2019-01-13T02:40:26.913Z,22.93
2019-01-13T02:43:31.741Z,24.20
2019-01-13T02:46:36.806Z,31.40
2019-01-13T02:49:41.558Z,33.17
2019-01-13T02:52:46.257Z,37.00
2019-01-13T02:55:50.936Z,36.57
2019-01-13T02:58:55.941Z,35.20
2019-01-13T03:02:01.051Z,38.87
2019-01-13T03:05:07.333Z,32.83
2019-01-13T03:08:12.445Z,34.37
2019-01-13T03:11:17.749Z,29.70
2019-01-13T03:14:23.045Z,35.83
2019-01-13T03:17:28.005Z,38.50
2019-01-13T03:20:32.909Z,34.23
2019-01-13T03:23:37.787Z,33.07
2019-01-13T03:26:42.741Z,33.80
2019-01-13T03:29:47.756Z,37.20
2019-01-13T03:32:52.664Z,37.83
2019-01-13T03:35:57.841Z,39.53
2019-01-13T03:39:02.746Z,37.40
2019-01-13T03:42:07.890Z,33.67
2019-01-13T03:45:12.921Z,27.43
2019-01-13T03:48:18.013Z,24.57
2019-01-13T03:51:22.795Z,26.43
2019-01-13T03:54:27.797Z,22.33
2019-01-13T03:57:32.762Z,16.40
2019-01-13T04:00:37.919Z,14.63
2019-01-13T04:03:42.845Z,16.40
2019-01-13T04:06:47.885Z,12.67
2019-01-13T04:09:52.925Z,11.60
2019-01-13T04:12:57.995Z,9.73
2019-01-13T04:16:03.790Z,10.10
2019-01-13T04:19:08.800Z,10.73
2019-01-13T04:22:13.891Z,12.60
2019-01-13T04:25:18.892Z,12.50
2019-01-13T04:28:23.797Z,11.23
2019-01-13T04:31:28.851Z,13.07
2019-01-13T04:34:33.935Z,10.67
2019-01-13T04:37:39.026Z,12.80
2019-01-13T04:40:44.224Z,12.27
2019-01-13T04:43:49.305Z,10.60
2019-01-13T04:46:54.701Z,11.00
2019-01-13T04:49:59.718Z,11.57
2019-01-13T04:53:05.457Z,8.43
2019-01-13T04:56:10.293Z,8.57
2019-01-13T04:59:15.225Z,8.00
2019-01-13T05:02:20.237Z,10.20
2019-01-13T05:05:25.163Z,10.20
2019-01-13T05:08:30.089Z,9.37
2019-01-13T05:11:35.083Z,10.07
2019-01-13T05:14:40.186Z,9.40
2019-01-13T05:17:45.263Z,7.57
2019-01-13T05:20:50.557Z,7.23
2019-01-13T05:23:55.597Z,10.53
2019-01-13T05:27:00.513Z,7.40
2019-01-13T05:30:08.048Z,7.70
2019-01-13T05:33:13.229Z,9.13
2019-01-13T05:36:18.221Z,10.77
2019-01-13T05:39:23.375Z,10.30
2019-01-13T05:42:28.322Z,7.57
2019-01-13T05:45:33.162Z,9.57
2019-01-13T05:48:38.125Z,9.53
2019-01-13T05:51:43.125Z,9.07
2019-01-13T05:54:48.272Z,8.63
2019-01-13T05:57:53.290Z,9.07
2019-01-13T06:00:58.553Z,16.33
2019-01-13T06:04:03.491Z,19.67
2019-01-13T06:07:08.370Z,15.87
2019-01-13T06:10:32.184Z,27.73
2019-01-13T06:13:37.164Z,26.17
2019-01-13T06:16:42.056Z,24.30
2019-01-13T06:19:47.225Z,28.60
2019-01-13T06:22:52.150Z,26.10
2019-01-13T06:25:57.393Z,29.30
2019-01-13T06:29:02.474Z,27.77
2019-01-13T06:32:07.684Z,23.67
2019-01-13T06:35:12.639Z,28.47
2019-01-13T06:38:17.532Z,29.50
2019-01-13T06:41:22.586Z,26.33
2019-01-13T06:44:27.620Z,27.67
2019-01-13T06:47:32.458Z,33.73
2019-01-13T06:50:37.517Z,29.60
2019-01-13T06:53:42.603Z,23.33
2019-01-13T06:56:47.639Z,28.03
2019-01-13T06:59:52.745Z,26.93
2019-01-13T07:02:59.245Z,27.80
2019-01-13T07:06:04.513Z,26.00
2019-01-13T07:09:09.509Z,26.30
2019-01-13T07:12:17.068Z,24.10
2019-01-13T07:15:22.186Z,28.93
2019-01-13T07:18:27.428Z,20.77
2019-01-13T07:21:32.433Z,23.40
2019-01-13T07:24:57.936Z,26.37
2019-01-13T07:28:03.051Z,25.30
2019-01-13T07:31:07.976Z,23.47
2019-01-13T07:34:13.138Z,24.40
2019-01-13T07:37:18.156Z,23.47
2019-01-13T07:40:24.108Z,23.00
2019-01-13T07:43:32.326Z,20.67
2019-01-13T07:46:37.342Z,26.27
2019-01-13T07:49:42.372Z,25.80
2019-01-13T07:52:47.702Z,23.50
2019-01-13T07:55:52.901Z,19.53
2019-01-13T07:58:59.289Z,22.67
2019-01-13T08:02:04.193Z,24.57
2019-01-13T08:05:09.316Z,25.90
2019-01-13T08:08:14.494Z,22.13
2019-01-13T08:11:19.495Z,20.50
2019-01-13T08:14:24.536Z,27.10
2019-01-13T08:17:29.489Z,23.47
2019-01-13T08:20:34.669Z,21.80
2019-01-13T08:23:39.824Z,21.70
2019-01-13T08:26:44.820Z,24.50
2019-01-13T08:29:49.791Z,27.30
2019-01-13T08:32:54.656Z,27.80
2019-01-13T08:35:59.581Z,20.70
2019-01-13T08:39:07.317Z,22.00
2019-01-13T08:42:12.302Z,22.87
2019-01-13T08:45:17.987Z,22.93
2019-01-13T08:48:23.277Z,25.10
2019-01-13T08:51:28.314Z,26.20
2019-01-13T08:54:33.544Z,22.77
2019-01-13T08:57:38.671Z,21.77
2019-01-13T09:00:43.827Z,20.97
2019-01-13T09:03:49.277Z,23.67
2019-01-13T09:06:54.574Z,19.10
2019-01-13T09:09:59.746Z,18.90
2019-01-13T09:13:05.425Z,20.13
2019-01-13T09:16:12.256Z,18.40
2019-01-13T09:19:17.589Z,20.30
2019-01-13T09:22:22.584Z,15.80
2019-01-13T09:25:27.868Z,19.07
2019-01-13T09:28:32.790Z,17.30
2019-01-13T09:31:37.964Z,18.43
2019-01-13T09:34:43.064Z,18.90
2019-01-13T09:37:48.227Z,16.80
2019-01-13T09:40:53.144Z,17.40
2019-01-13T09:43:58.243Z,13.27
2019-01-13T09:47:03.149Z,15.47
2019-01-13T09:50:09.733Z,14.87
2019-01-13T09:53:14.869Z,13.10
2019-01-13T09:56:19.896Z,12.30
2019-01-13T09:59:24.837Z,9.73
2019-01-13T10:02:29.693Z,9.47
2019-01-13T10:05:34.904Z,9.80
2019-01-13T10:08:39.995Z,10.53
2019-01-13T10:11:44.971Z,10.57
2019-01-13T10:14:50.129Z,9.93
2019-01-13T10:17:55.243Z,9.70
2019-01-13T10:21:00.102Z,8.60
2019-01-13T10:24:05.124Z,9.63
2019-01-13T10:27:10.230Z,8.57
2019-01-13T10:30:17.664Z,9.70
2019-01-13T10:33:22.886Z,7.60
2019-01-13T10:36:27.936Z,9.87
2019-01-13T10:39:33.007Z,8.97
2019-01-13T10:42:38.253Z,12.23
2019-01-13T10:45:43.195Z,9.53
2019-01-13T10:48:48.218Z,7.97
2019-01-13T10:51:53.265Z,8.50
2019-01-13T10:55:00.353Z,9.00
2019-01-13T10:58:06.278Z,11.03
2019-01-13T11:01:11.244Z,10.27
2019-01-13T11:04:16.217Z,8.37
2019-01-13T11:07:21.628Z,9.27
2019-01-13T11:10:26.716Z,7.70
2019-01-13T11:13:33.895Z,7.53
2019-01-13T11:16:38.935Z,9.00
2019-01-13T11:19:43.955Z,8.77
2019-01-13T11:22:49.083Z,8.13
2019-01-13T11:25:54.022Z,7.07
2019-01-13T11:28:59.129Z,9.63
2019-01-13T11:32:03.998Z,7.63
2019-01-13T11:35:10.539Z,6.90
2019-01-13T11:38:15.455Z,8.80
2019-01-13T11:41:20.555Z,9.37
2019-01-13T11:44:25.428Z,5.53
2019-01-13T11:47:30.657Z,6.93
2019-01-13T11:50:36.403Z,6.03
2019-01-13T11:53:41.570Z,7.10
2019-01-13T11:56:46.408Z,8.10
2019-01-13T11:59:51.313Z,15.07
2019-01-13T12:02:56.413Z,10.53
2019-01-13T12:06:01.462Z,9.63
2019-01-13T12:09:11.944Z,10.50
2019-01-13T12:12:17.247Z,10.33
2019-01-13T12:15:22.592Z,11.90
2019-01-13T12:18:28.114Z,11.00
2019-01-13T12:21:33.052Z,10.70
2019-01-13T12:24:38.383Z,16.63
2019-01-13T12:27:43.659Z,9.10
2019-01-13T12:30:48.871Z,6.27
2019-01-13T12:33:53.910Z,5.90
2019-01-13T12:36:59.265Z,10.20
2019-01-13T12:40:05.202Z,8.53
2019-01-13T12:43:10.383Z,6.43
2019-01-13T12:46:15.798Z,7.50
2019-01-13T12:49:21.086Z,7.80
2019-01-13T12:52:26.155Z,4.47
2019-01-13T12:55:31.208Z,6.77
2019-01-13T12:58:36.479Z,8.07
2019-01-13T13:01:41.531Z,7.10
2019-01-13T13:04:46.593Z,5.30
2019-01-13T13:07:52.341Z,6.07
2019-01-13T13:10:58.390Z,6.57
2019-01-13T13:14:03.574Z,4.67
2019-01-13T13:17:08.750Z,7.03
2019-01-13T13:20:14.334Z,4.73
2019-01-13T13:23:19.429Z,4.73
2019-01-13T13:26:24.398Z,5.80
2019-01-13T13:29:29.742Z,6.67
2019-01-13T13:32:34.679Z,5.37
2019-01-13T13:35:40.244Z,7.57
2019-01-13T13:38:45.297Z,5.57
2019-01-13T13:41:50.723Z,4.83
2019-01-13T13:44:55.705Z,6.90
2019-01-13T13:48:01.056Z,10.20
2019-01-13T13:51:06.411Z,7.07
2019-01-13T13:54:15.102Z,5.50
2019-01-13T13:57:20.311Z,5.43
2019-01-13T14:00:34.325Z,7.93
2019-01-13T14:03:45.526Z,6.40
2019-01-13T14:06:46.118Z,7.23
2019-01-13T14:09:51.163Z,7.43
2019-01-13T14:12:56.276Z,6.83
2019-01-13T14:16:01.593Z,6.97
2019-01-13T14:19:06.752Z,5.47
2019-01-13T14:22:11.576Z,6.07
2019-01-13T14:25:16.543Z,7.70
2019-01-13T14:28:21.670Z,6.27
2019-01-13T14:31:26.892Z,4.97
2019-01-13T14:34:32.054Z,8.50
2019-01-13T14:37:37.153Z,7.10
2019-01-13T14:40:42.129Z,13.10
2019-01-13T14:43:47.127Z,11.30
2019-01-13T14:46:55.828Z,8.60
2019-01-13T14:50:00.808Z,7.30
2019-01-13T14:53:07.614Z,10.90
2019-01-13T14:56:12.382Z,9.07
2019-01-13T14:59:17.134Z,8.30
2019-01-13T15:02:21.908Z,9.43
2019-01-13T15:05:27.096Z,9.50
2019-01-13T15:08:32.275Z,10.43
2019-01-13T15:11:37.149Z,11.60
2019-01-13T15:14:42.155Z,10.53
2019-01-13T15:17:47.345Z,14.57
2019-01-13T15:20:52.455Z,16.97
2019-01-13T15:23:57.670Z,20.80
2019-01-13T15:27:02.717Z,23.77
2019-01-13T15:30:12.343Z,19.20
2019-01-13T15:33:17.937Z,27.23
2019-01-13T15:36:22.854Z,20.10
2019-01-13T15:39:27.741Z,18.60
2019-01-13T15:42:32.648Z,20.07
2019-01-13T15:45:37.868Z,29.83
2019-01-13T15:48:42.741Z,19.60
2019-01-13T15:51:49.467Z,20.87
2019-01-13T15:54:54.791Z,9.70
2019-01-13T15:57:59.874Z,15.77
2019-01-13T16:01:04.966Z,11.57
2019-01-13T16:04:14.506Z,23.67
2019-01-13T16:07:16.523Z,19.67
2019-01-13T16:10:22.913Z,27.43
2019-01-13T16:13:27.984Z,13.83
2019-01-13T16:16:33.094Z,21.87
2019-01-13T16:19:39.254Z,12.27
2019-01-13T16:22:44.456Z,18.93
2019-01-13T16:25:49.484Z,20.27
2019-01-13T16:28:54.569Z,19.53
2019-01-13T16:31:59.636Z,19.73
2019-01-13T16:35:04.884Z,18.07
2019-01-13T16:38:09.809Z,21.73
2019-01-13T16:41:15.108Z,24.60
2019-01-13T16:44:20.688Z,19.53
2019-01-13T16:47:25.957Z,17.73
2019-01-13T16:50:31.008Z,16.87
2019-01-13T16:53:36.465Z,19.10
2019-01-13T16:56:43.950Z,19.87
2019-01-13T16:59:48.837Z,17.63
2019-01-13T17:02:53.800Z,15.83
2019-01-13T17:05:58.723Z,17.53
2019-01-13T17:09:07.262Z,15.17
2019-01-13T17:12:12.370Z,12.87
2019-01-13T17:15:19.002Z,15.67
2019-01-13T17:18:24.184Z,17.67
2019-01-13T17:21:29.276Z,17.50
2019-01-13T17:24:34.448Z,17.63
2019-01-13T17:27:39.394Z,18.20
2019-01-13T17:30:44.473Z,17.50
2019-01-13T17:33:49.724Z,22.53
2019-01-13T17:36:54.683Z,21.10
2019-01-13T17:39:59.845Z,22.53
2019-01-13T17:43:04.937Z,23.40
2019-01-13T17:46:10.191Z,22.20
2019-01-13T17:49:15.213Z,23.47
2019-01-13T17:52:20.466Z,24.70
2019-01-13T17:55:27.315Z,25.97
2019-01-13T17:58:32.632Z,20.93
2019-01-13T18:01:41.737Z,20.77
2019-01-13T18:04:46.683Z,23.23
2019-01-13T18:07:51.786Z,22.20
2019-01-13T18:10:56.901Z,17.00
2019-01-13T18:14:02.511Z,22.00
2019-01-13T18:17:07.497Z,17.87
2019-01-13T18:20:15.747Z,20.10
2019-01-13T18:23:20.857Z,20.80
2019-01-13T18:26:25.986Z,21.10
2019-01-13T18:29:31.287Z,21.40
2019-01-13T18:32:36.247Z,20.70
2019-01-13T18:35:41.384Z,26.50
2019-01-13T18:38:46.538Z,21.77
2019-01-13T18:41:51.841Z,22.80
2019-01-13T18:44:56.953Z,20.70
2019-01-13T18:48:02.117Z,27.00
2019-01-13T18:51:07.039Z,28.27
2019-01-13T18:54:12.140Z,34.73
2019-01-13T18:57:17.509Z,29.43
2019-01-13T19:00:23.195Z,30.60
2019-01-13T19:03:28.429Z,30.07
2019-01-13T19:06:34.029Z,33.80
2019-01-13T19:09:39.085Z,30.77
2019-01-13T19:12:44.384Z,40.07
2019-01-13T19:15:50.785Z,32.43
2019-01-13T19:18:56.359Z,29.83
2019-01-13T19:22:01.465Z,26.70
2019-01-13T19:25:17.203Z,24.67
2019-01-13T19:28:22.320Z,28.27
2019-01-13T19:31:27.329Z,23.07
2019-01-13T19:34:32.780Z,21.10
2019-01-13T19:37:37.729Z,25.50
2019-01-13T19:40:44.007Z,24.50
2019-01-13T19:43:49.420Z,31.83
2019-01-13T19:46:54.818Z,25.77
2019-01-13T19:49:59.871Z,57.07
2019-01-13T19:53:08.948Z,48.80
2019-01-13T19:56:14.027Z,34.63
2019-01-13T19:59:19.228Z,25.73
2019-01-13T20:02:24.211Z,22.23
2019-01-13T20:05:29.949Z,23.65
2019-01-13T20:08:35.146Z,24.97
2019-01-13T20:11:40.406Z,22.80
2019-01-13T20:14:45.530Z,24.50
2019-01-13T20:17:50.534Z,19.80
2019-01-13T20:20:55.746Z,21.60
2019-01-13T20:24:01.179Z,22.50
2019-01-13T20:27:06.370Z,20.83
2019-01-13T20:30:14.694Z,26.03
2019-01-13T20:33:19.974Z,20.83
2019-01-13T20:36:25.111Z,21.27
2019-01-13T20:39:30.178Z,21.07
2019-01-13T20:42:35.225Z,27.37
2019-01-13T20:45:42.161Z,25.93
2019-01-13T20:48:47.399Z,26.20
2019-01-13T20:51:52.464Z,23.70
2019-01-13T20:54:57.466Z,23.03
2019-01-13T20:58:02.618Z,29.07
2019-01-13T21:01:07.692Z,21.90
2019-01-13T21:04:12.815Z,20.80
2019-01-13T21:07:17.993Z,17.87
2019-01-13T21:10:23.296Z,22.57
2019-01-13T21:13:28.423Z,18.33
2019-01-13T21:16:33.636Z,22.53
2019-01-13T21:19:38.663Z,19.40
2019-01-13T21:22:43.564Z,24.90
2019-01-13T21:25:48.850Z,20.87
2019-01-13T21:28:53.957Z,17.67
2019-01-13T21:31:59.322Z,17.50
2019-01-13T21:35:04.761Z,24.40
2019-01-13T21:38:10.243Z,16.73
2019-01-13T21:41:19.336Z,22.07
2019-01-13T21:44:24.484Z,17.73
2019-01-13T21:47:30.251Z,22.90
2019-01-13T21:50:35.922Z,19.33
2019-01-13T21:53:46.669Z,18.30
2019-01-13T21:56:53.729Z,20.07
2019-01-13T21:59:59.501Z,15.63
2019-01-13T22:03:04.888Z,21.70
2019-01-13T22:06:10.700Z,17.00
2019-01-13T22:09:16.585Z,18.30
2019-01-13T22:12:21.549Z,17.23
2019-01-13T22:15:27.748Z,21.47
2019-01-13T22:18:34.290Z,15.63
2019-01-13T22:21:39.471Z,13.20
2019-01-13T22:24:44.440Z,17.40
2019-01-13T22:27:49.418Z,24.67
2019-01-13T22:30:54.318Z,16.70
2019-01-13T22:33:59.267Z,15.00
2019-01-13T22:37:04.757Z,19.00
2019-01-13T22:40:12.310Z,19.20
2019-01-13T22:43:17.309Z,16.67
2019-01-13T22:46:22.750Z,15.30
2019-01-13T22:49:27.890Z,14.53
2019-01-13T22:52:32.860Z,21.30
2019-01-13T22:55:37.756Z,14.30
2019-01-13T22:58:42.722Z,13.43
2019-01-13T23:02:08.096Z,14.43
2019-01-13T23:05:13.376Z,15.43
2019-01-13T23:08:18.422Z,14.10
2019-01-13T23:11:23.363Z,14.33
2019-01-13T23:14:28.355Z,12.87
2019-01-13T23:17:33.509Z,20.67
2019-01-13T23:20:38.590Z,28.57
2019-01-13T23:23:43.703Z,26.70
2019-01-13T23:26:48.757Z,15.03
2019-01-13T23:29:53.725Z,15.50
2019-01-13T23:32:58.664Z,14.53
2019-01-13T23:36:03.725Z,15.13
2019-01-13T23:39:09.549Z,15.70
2019-01-13T23:42:14.577Z,8.77
2019-01-13T23:45:19.830Z,12.43
2019-01-13T23:48:24.832Z,10.53
2019-01-13T23:51:29.996Z,12.30
2019-01-13T23:54:35.162Z,9.60
2019-01-13T23:57:40.093Z,13.10
